East Watertown, MA (02472)

12:35 AM EDT on August 05, 2015 (GMT -0400)
Watertown Center | | Change Station
CLOSE
Current Station
Personal Weather Station
Location: Watertown, MA
Elevation: 62 ft
Nearby Weather Stations

Elev 62 ft 42.37 °N, 71.18 °W | Updated 12 minutes ago

Clear
Clear
68.0 °F
Feels Like 68.0 °F
N
0.0
Wind Variable Wind from SSW

Today
High -- | Low -- °F
--% Chance of Precip.
Yesterday
High -- | Low -- °F
Precip. -- in
5:41 AM 7:59 PM
Waning Gibbous, 71% visible
Pressure 29.91 in
Visibility 4.0 miles
Clouds Clear
Dew Point 68 °F
Humidity 99%
Rainfall 0.00 in
Snow Depth Not available.
UV 0 out of 12
Pollen 5.70 out of 12
Air Quality Not available.
Flu Activity Not available.
METAR KBED 050356Z 00000KT 4SM BR CLR 18/17 A2988 RMK AO2 SLP127 T01830172

More Conditions Fewer Conditions

Pressure 29.91 in
Visibility 4.0 miles
Clouds Clear
Dew Point 68 °F
Humidity 99%
Rainfall 0.00 in
Snow Depth Not available.
UV 0 out of 12
Pollen 5.70 out of 12
Air Quality Not available.
Flu Activity Not available.
METAR KBED 050356Z 00000KT 4SM BR CLR 18/17 A2988 RMK AO2 SLP127 T01830172

More Conditions Fewer Conditions

10-Day Weather Forecast

×

Almanac

Astronomy

Aug. 05, 2015 Rise Set
Actual Time
Civil Twilight
Nautical Twilight
Astronomical Twilight
Moon
Length of Visible Light
Length of Day
Tomorrow will be .
, % of the Moon is Illuminated

Today's Extremes

State Highs State Lows

Community

WunderPhotos

Upload Photos

1,844,094 photos uploaded!

WunderBlogs® & News

Nearby

Air Quality

  Air Quality AQ Index Pollutant
Not available.

Snow Depth

Station Depth Elevation

Earthquake Activity

City Distance Mag. Time & Date
Minimum magnitude displayed is 2.5.

Coastal Water Temperatures

Place Temperature

Stations

Nearby Weather Stations

Station Location Temp. Windchill Dew Point Humidity Wind Precip. Elev Updated Type